createdAt,value
2018-08-19T00:01:10.096Z,99.60
2018-08-19T00:06:14.864Z,99.60
2018-08-19T00:11:21.307Z,99.60
2018-08-19T00:16:26.126Z,99.60
2018-08-19T00:21:31.068Z,99.50
2018-08-19T00:26:35.816Z,99.20
2018-08-19T00:31:40.641Z,98.60
2018-08-19T00:36:45.604Z,98.00
2018-08-19T00:41:57.119Z,97.80
2018-08-19T00:47:01.846Z,98.00
2018-08-19T00:52:07.907Z,98.50
2018-08-19T00:57:12.600Z,99.30
2018-08-19T01:02:17.434Z,99.60
2018-08-19T01:07:22.080Z,99.60
2018-08-19T01:12:27.054Z,99.60
2018-08-19T01:17:42.157Z,99.60
2018-08-19T01:22:47.113Z,99.60
2018-08-19T01:27:52.818Z,99.60
2018-08-19T01:32:57.506Z,99.60
2018-08-19T01:38:02.527Z,99.60
2018-08-19T01:43:07.341Z,99.60
2018-08-19T01:48:12.467Z,99.60
2018-08-19T01:53:17.200Z,99.60
2018-08-19T01:58:22.334Z,99.60
2018-08-19T02:03:27.436Z,99.60
2018-08-19T02:08:32.851Z,99.60
2018-08-19T02:13:37.598Z,99.60
2018-08-19T02:18:44.313Z,99.60
2018-08-19T02:23:49.208Z,99.60
2018-08-19T02:28:53.814Z,99.60
2018-08-19T02:33:58.656Z,99.60
2018-08-19T02:39:03.525Z,99.60
2018-08-19T02:44:08.245Z,99.60
2018-08-19T02:49:13.749Z,99.60
2018-08-19T02:54:18.558Z,99.60
2018-08-19T02:59:23.163Z,99.60
2018-08-19T03:04:28.137Z,99.60
2018-08-19T03:09:32.949Z,99.60
2018-08-19T03:14:37.581Z,99.60
2018-08-19T03:19:42.391Z,99.60
2018-08-19T03:24:47.274Z,99.60
2018-08-19T03:29:56.274Z,99.60
2018-08-19T03:35:06.985Z,99.60
2018-08-19T03:40:11.638Z,99.60
2018-08-19T03:45:20.953Z,99.60
2018-08-19T03:50:26.675Z,99.60
2018-08-19T03:55:32.237Z,99.60
2018-08-19T04:00:39.012Z,99.60
2018-08-19T04:05:47.451Z,99.60
2018-08-19T04:10:52.751Z,99.60
2018-08-19T04:15:58.739Z,99.60
2018-08-19T04:21:06.898Z,99.60
2018-08-19T04:26:11.525Z,99.60
2018-08-19T04:31:21.264Z,99.60
2018-08-19T04:36:26.025Z,99.60
2018-08-19T04:41:30.890Z,99.60
2018-08-19T04:46:35.935Z,99.60
2018-08-19T04:51:40.779Z,99.60
2018-08-19T04:56:45.602Z,99.60
2018-08-19T05:01:50.288Z,99.60
2018-08-19T05:06:55.667Z,99.60
2018-08-19T05:12:01.025Z,99.60
2018-08-19T05:17:05.961Z,99.60
2018-08-19T05:22:13.261Z,99.60
2018-08-19T05:27:17.879Z,99.60
2018-08-19T05:32:22.740Z,99.60
2018-08-19T05:37:27.683Z,99.60
2018-08-19T05:42:32.406Z,99.60
2018-08-19T05:47:37.247Z,99.60
2018-08-19T05:52:41.845Z,99.60
2018-08-19T05:57:46.835Z,99.60
2018-08-19T06:02:52.445Z,99.60
2018-08-19T06:08:02.345Z,99.60
2018-08-19T06:13:07.925Z,99.60
2018-08-19T06:18:12.870Z,99.60
2018-08-19T06:23:18.078Z,99.50
2018-08-19T06:28:22.775Z,98.80
2018-08-19T06:33:27.970Z,99.20
2018-08-19T06:38:32.695Z,98.00
2018-08-19T06:43:37.411Z,97.50
2018-08-19T06:48:42.157Z,96.80
2018-08-19T06:53:46.868Z,97.20
2018-08-19T06:58:51.519Z,97.10
2018-08-19T07:03:56.777Z,95.90
2018-08-19T07:09:01.850Z,95.20
2018-08-19T07:14:06.705Z,94.90
2018-08-19T07:19:11.405Z,96.40
2018-08-19T07:24:16.353Z,97.20
2018-08-19T07:29:20.866Z,97.00
2018-08-19T07:34:25.819Z,97.40
2018-08-19T07:39:31.015Z,97.20
2018-08-19T07:44:36.226Z,97.40
2018-08-19T07:49:41.459Z,97.20
2018-08-19T07:54:46.180Z,95.50
2018-08-19T07:59:51.516Z,95.60
2018-08-19T08:04:56.907Z,96.30
2018-08-19T08:10:01.838Z,95.40
2018-08-19T08:15:10.784Z,96.10
2018-08-19T08:20:15.689Z,95.70
2018-08-19T08:25:20.569Z,93.20
2018-08-19T08:30:25.281Z,93.60
2018-08-19T08:35:30.482Z,92.90
2018-08-19T08:40:36.127Z,93.20
2018-08-19T08:45:42.308Z,93.30
2018-08-19T08:50:47.030Z,92.50
2018-08-19T08:56:04.734Z,91.80
2018-08-19T09:01:10.033Z,91.80
2018-08-19T09:06:34.257Z,91.90
2018-08-19T09:11:39.101Z,91.00
2018-08-19T09:16:44.433Z,90.80
2018-08-19T09:21:49.203Z,90.10
2018-08-19T09:26:54.489Z,89.50
2018-08-19T09:32:00.081Z,89.40
2018-08-19T09:37:05.065Z,89.30
2018-08-19T09:42:14.528Z,89.10
2018-08-19T09:47:19.585Z,89.90
2018-08-19T09:52:24.540Z,88.50
2018-08-19T09:57:31.634Z,88.20
2018-08-19T10:02:40.651Z,88.80
2018-08-19T10:07:45.480Z,87.40
2018-08-19T10:12:50.213Z,87.00
2018-08-19T10:17:54.963Z,87.50
2018-08-19T10:23:01.915Z,87.00
2018-08-19T10:28:08.425Z,86.60
2018-08-19T10:33:13.661Z,85.70
2018-08-19T10:38:19.021Z,86.00
2018-08-19T10:43:24.065Z,85.60
2018-08-19T10:48:28.785Z,85.60
2018-08-19T10:53:33.592Z,84.00
2018-08-19T10:58:45.672Z,84.00
2018-08-19T11:03:50.472Z,82.20
2018-08-19T11:08:56.835Z,81.90
2018-08-19T11:14:06.242Z,82.00
2018-08-19T11:19:11.141Z,81.70
2018-08-19T11:24:26.927Z,80.90
2018-08-19T11:29:35.015Z,81.10
2018-08-19T11:34:39.853Z,79.50
2018-08-19T11:39:44.938Z,77.80
2018-08-19T11:44:49.755Z,75.40
2018-08-19T11:49:54.326Z,74.80
2018-08-19T11:54:58.792Z,72.30
2018-08-19T12:00:04.456Z,72.10
2018-08-19T12:05:09.284Z,69.70
2018-08-19T12:10:14.770Z,69.00
2018-08-19T12:15:20.032Z,69.00
2018-08-19T12:20:42.071Z,68.20
2018-08-19T12:25:46.901Z,69.00
2018-08-19T12:30:51.509Z,68.20
2018-08-19T12:35:58.136Z,68.90
2018-08-19T12:41:05.523Z,67.20
2018-08-19T12:46:10.461Z,68.20
2018-08-19T12:51:15.217Z,66.90
2018-08-19T12:56:19.986Z,67.30
2018-08-19T13:01:24.520Z,68.20
2018-08-19T13:06:30.338Z,68.80
2018-08-19T13:11:35.161Z,68.00
2018-08-19T13:16:39.953Z,68.20
2018-08-19T13:21:44.901Z,68.40
2018-08-19T13:26:49.860Z,68.70
2018-08-19T13:31:54.709Z,68.10
2018-08-19T13:36:59.482Z,71.10
2018-08-19T13:42:05.467Z,69.20
2018-08-19T13:47:10.268Z,65.60
2018-08-19T13:52:15.031Z,67.20
2018-08-19T13:57:19.672Z,67.20
2018-08-19T14:02:24.529Z,66.20
2018-08-19T14:07:29.371Z,64.20
2018-08-19T14:12:34.326Z,65.60
2018-08-19T14:17:39.067Z,66.90
2018-08-19T14:22:43.695Z,66.50
2018-08-19T14:27:48.701Z,66.20
2018-08-19T14:32:53.488Z,66.00
2018-08-19T14:37:58.460Z,64.00
2018-08-19T14:43:03.820Z,64.10
2018-08-19T14:48:09.151Z,64.00
2018-08-19T14:53:14.711Z,65.20
2018-08-19T14:58:19.973Z,65.80
2018-08-19T15:03:25.193Z,64.60
2018-08-19T15:08:31.324Z,64.00
2018-08-19T15:13:36.144Z,62.70
2018-08-19T15:18:42.397Z,61.40
2018-08-19T15:23:47.970Z,61.90
2018-08-19T15:28:53.417Z,63.30
2018-08-19T15:33:58.557Z,62.30
2018-08-19T15:39:04.141Z,61.10
2018-08-19T15:44:08.979Z,60.50
2018-08-19T15:49:14.263Z,60.60
2018-08-19T15:54:19.316Z,61.00
2018-08-19T15:59:23.992Z,61.70
2018-08-19T16:04:30.211Z,61.10
2018-08-19T16:09:35.410Z,63.20
2018-08-19T16:14:40.551Z,62.20
2018-08-19T16:19:45.323Z,62.50
2018-08-19T16:24:50.389Z,62.20
2018-08-19T16:29:54.933Z,61.60
2018-08-19T16:34:59.931Z,62.30
2018-08-19T16:40:05.636Z,63.20
2018-08-19T16:45:12.146Z,66.30
2018-08-19T16:50:17.014Z,66.40
2018-08-19T16:55:21.841Z,65.50
2018-08-19T17:00:26.807Z,65.10
2018-08-19T17:05:33.423Z,63.90
2018-08-19T17:10:39.312Z,63.90
2018-08-19T17:15:44.046Z,64.90
2018-08-19T17:20:48.984Z,67.00
2018-08-19T17:25:54.173Z,70.30
2018-08-19T17:30:59.741Z,72.70
2018-08-19T17:36:04.884Z,73.30
2018-08-19T17:41:09.486Z,74.50
2018-08-19T17:46:15.709Z,76.40
2018-08-19T17:51:31.969Z,78.20
2018-08-19T17:56:36.704Z,79.20
2018-08-19T18:01:43.182Z,80.20
2018-08-19T18:06:48.029Z,80.90
2018-08-19T18:11:59.743Z,81.60
2018-08-19T18:17:04.519Z,82.70
2018-08-19T18:22:09.178Z,83.70
2018-08-19T18:27:13.804Z,84.60
2018-08-19T18:32:18.825Z,84.90
2018-08-19T18:37:23.534Z,85.60
2018-08-19T18:42:37.946Z,85.40
2018-08-19T18:47:48.807Z,86.10
2018-08-19T18:52:54.065Z,85.70
2018-08-19T18:57:59.456Z,85.90
2018-08-19T19:03:04.380Z,85.60
2018-08-19T19:08:13.189Z,84.80
2018-08-19T19:13:20.322Z,84.70
2018-08-19T19:18:25.011Z,84.30
2018-08-19T19:23:38.482Z,84.70
2018-08-19T19:28:43.806Z,85.50
2018-08-19T19:33:48.572Z,85.10
2018-08-19T19:38:57.203Z,85.60
2018-08-19T19:44:20.029Z,85.10
2018-08-19T19:49:25.873Z,85.30
2018-08-19T19:54:31.785Z,85.60
2018-08-19T19:59:36.403Z,85.80
2018-08-19T20:04:41.028Z,84.80
2018-08-19T20:09:45.846Z,83.60
2018-08-19T20:14:51.041Z,83.90
2018-08-19T20:19:55.872Z,84.50
2018-08-19T20:25:00.720Z,82.90
2018-08-19T20:30:05.781Z,84.90
2018-08-19T20:35:10.968Z,87.00
2018-08-19T20:40:16.174Z,88.00
2018-08-19T20:45:21.600Z,88.00
2018-08-19T20:50:26.444Z,87.60
2018-08-19T20:55:31.141Z,87.30
2018-08-19T21:00:36.188Z,87.70
2018-08-19T21:05:41.050Z,86.90
2018-08-19T21:10:46.836Z,87.20
2018-08-19T21:15:53.897Z,88.10
2018-08-19T21:20:59.994Z,87.80
2018-08-19T21:26:05.453Z,88.00
2018-08-19T21:31:10.467Z,89.20
2018-08-19T21:36:16.202Z,87.70
2018-08-19T21:41:21.084Z,89.00
2018-08-19T21:46:25.919Z,90.70
2018-08-19T21:51:30.667Z,92.40
2018-08-19T21:56:35.922Z,94.80
2018-08-19T22:01:47.430Z,96.00
2018-08-19T22:06:52.202Z,96.10
2018-08-19T22:11:58.318Z,96.00
2018-08-19T22:17:10.992Z,95.00
2018-08-19T22:22:15.983Z,93.10
2018-08-19T22:27:20.719Z,91.80
2018-08-19T22:32:25.564Z,91.40
2018-08-19T22:37:31.473Z,92.40
2018-08-19T22:42:36.962Z,91.00
2018-08-19T22:47:41.716Z,91.20
2018-08-19T22:52:46.785Z,91.40
2018-08-19T22:57:51.664Z,92.00
2018-08-19T23:02:56.903Z,91.90
2018-08-19T23:08:01.760Z,92.60
2018-08-19T23:14:20.033Z,93.70
2018-08-19T23:19:24.839Z,92.40
2018-08-19T23:24:29.728Z,92.40
2018-08-19T23:29:34.540Z,92.50
2018-08-19T23:34:39.234Z,93.60
2018-08-19T23:39:44.056Z,94.60
2018-08-19T23:44:48.698Z,95.20
2018-08-19T23:49:53.348Z,95.50
2018-08-19T23:54:58.095Z,95.80
